Time;durP1;ratioP1;P1;durP2;ratioP2;P2;SDS_P1;SDS_P2;PMS_P1;PMS_P2;Temp;Humidity;BMP_temperature;BMP_pressure;BME280_temperature;BME280_humidity;BME280_pressure;Samples;Min_cycle;Max_cycle;Signal;HPM_P1;HPM_P2
2021/03/16 00:01:00;;;;;;;;;;;3.60;99.90;;;;;;5091587;28;19912;-77
2021/03/16 00:03:26;;;;;;;;;;;3.60;99.90;;;;;;5092658;28;19953;-76
2021/03/16 00:05:51;;;;;;;;;;;3.60;99.90;;;;;;5091290;28;19908;-77
2021/03/16 00:08:17;;;;;;;;;;;3.60;99.90;;;;;;5092938;28;19919;-76
2021/03/16 00:10:42;;;;;;;;;;;3.60;99.90;;;;;;5091257;28;19947;-77
2021/03/16 00:13:08;;;;;;;;;;;3.70;99.90;;;;;;5089150;28;19915;-77
2021/03/16 00:15:33;;;;;;;;;;;3.60;99.90;;;;;;5090907;28;19919;-76
2021/03/16 00:18:01;;;;;;;;;;;3.70;99.90;;;;;;5090799;28;19908;-76
2021/03/16 00:20:26;;;;;;;;;;;3.70;99.90;;;;;;5091171;28;19962;-76
2021/03/16 00:22:52;;;;;;;;;;;3.70;99.90;;;;;;5092702;28;19966;-76
2021/03/16 00:25:17;;;;;;;;;;;3.70;99.90;;;;;;5091026;28;19908;-76
2021/03/16 00:27:43;;;;;;;;;;;3.70;99.90;;;;;;5090633;28;19908;-77
2021/03/16 00:30:08;;;;;;;;;;;3.70;99.90;;;;;;5091098;28;20289;-77
2021/03/16 00:32:34;;;;;;;;;;;3.70;99.90;;;;;;5090725;28;19908;-76
2021/03/16 00:34:59;;;;;;;;;;;3.70;99.90;;;;;;5090866;28;20349;-76
2021/03/16 00:37:25;;;;;;;;;;;3.70;99.90;;;;;;5091157;28;19928;-77
2021/03/16 00:39:51;;;;;;;;;;;3.60;99.90;;;;;;5091118;28;19908;-77
2021/03/16 00:42:17;;;;;;;;;;;3.60;99.90;;;;;;5087374;28;19912;-77
2021/03/16 00:44:42;;;;;;;;;;;3.60;99.90;;;;;;5090998;28;20014;-76
2021/03/16 00:47:08;;;;;;;;;;;3.50;99.90;;;;;;5089637;28;19913;-76
2021/03/16 00:49:33;;;;;;;;;;;3.50;99.90;;;;;;5090697;28;19962;-77
2021/03/16 00:51:59;;;;;;;;;;;3.50;99.90;;;;;;5090509;28;19973;-77
2021/03/16 00:54:25;;;;;;;;;;;3.50;99.90;;;;;;5090593;28;19909;-76
2021/03/16 00:56:50;;;;;;;;;;;3.50;99.90;;;;;;5091354;28;19951;-76
2021/03/16 00:59:16;;;;;;;;;;;3.50;99.90;;;;;;5091817;28;19908;-76
2021/03/16 01:01:41;;;;;;;;;;;3.50;99.90;;;;;;5091511;28;20328;-77
2021/03/16 01:04:07;;;;;;;;;;;3.50;99.90;;;;;;5090654;28;19916;-77
2021/03/16 01:06:32;;;;;;;;;;;3.50;99.90;;;;;;5091281;28;20305;-77
2021/03/16 01:08:58;;;;;;;;;;;3.50;99.90;;;;;;5090245;28;19998;-77
2021/03/16 01:11:23;;;;;;;;;;;3.60;99.90;;;;;;5086983;28;19975;-76
2021/03/16 01:13:49;;;;;;;;;;;3.60;99.90;;;;;;5090077;28;19908;-76
2021/03/16 01:16:14;;;;;;;;;;;3.50;99.90;;;;;;5089950;28;19919;-75
2021/03/16 01:18:40;;;;;;;;;;;3.50;99.90;;;;;;5090408;28;19912;-77
2021/03/16 01:21:05;;;;;;;;;;;3.50;99.90;;;;;;5090396;28;19908;-77
2021/03/16 01:23:31;;;;;;;;;;;3.50;99.90;;;;;;5090413;28;19990;-77
2021/03/16 01:25:56;;;;;;;;;;;3.50;99.90;;;;;;5089977;28;19926;-77
2021/03/16 01:28:22;;;;;;;;;;;3.40;99.90;;;;;;5091725;28;19916;-77
2021/03/16 01:30:47;;;;;;;;;;;3.40;99.90;;;;;;5090297;28;19909;-76
2021/03/16 01:33:12;;;;;;;;;;;3.30;99.90;;;;;;5090358;28;20006;-76
2021/03/16 01:35:38;;;;;;;;;;;3.30;99.90;;;;;;5089974;28;20369;-77
2021/03/16 01:38:03;;;;;;;;;;;3.20;99.90;;;;;;5090275;28;19908;-77
2021/03/16 01:40:34;;;;;;;;;;;3.20;99.90;;;;;;5091479;28;20049;-76
2021/03/16 01:43:07;;;;;;;;;;;3.20;99.90;;;;;;5086802;28;19988;-77
2021/03/16 01:45:32;;;;;;;;;;;3.20;99.90;;;;;;5091095;28;19908;-75
2021/03/16 01:47:58;;;;;;;;;;;3.10;99.90;;;;;;5091510;28;19909;-77
2021/03/16 01:50:23;;;;;;;;;;;3.10;99.90;;;;;;5090059;28;20379;-77
2021/03/16 01:52:51;;;;;;;;;;;3.10;99.90;;;;;;5091323;28;19962;-77
2021/03/16 01:55:17;;;;;;;;;;;3.10;99.90;;;;;;5089992;28;19916;-77
2021/03/16 01:57:43;;;;;;;;;;;3.10;99.90;;;;;;5089665;28;20003;-77
2021/03/16 02:00:10;;;;;;;;;;;3.10;99.90;;;;;;5092213;28;19915;-77
2021/03/16 02:02:35;;;;;;;;;;;3.10;99.90;;;;;;5094144;28;19908;-76
2021/03/16 02:05:04;;;;;;;;;;;3.10;99.90;;;;;;5094015;28;20006;-76
2021/03/16 02:07:33;;;;;;;;;;;3.10;99.90;;;;;;5095004;28;19954;-76
2021/03/16 02:10:05;;;;;;;;;;;3.10;99.90;;;;;;5095203;28;19908;-76
2021/03/16 02:12:30;;;;;;;;;;;3.10;99.90;;;;;;5090365;28;19908;-76
2021/03/16 02:15:04;;;;;;;;;;;3.10;99.90;;;;;;5093655;28;19918;-76
2021/03/16 02:17:31;;;;;;;;;;;3.10;99.90;;;;;;5094760;28;19915;-76
2021/03/16 02:20:07;;;;;;;;;;;3.10;99.90;;;;;;5093555;28;19912;-77
2021/03/16 02:22:35;;;;;;;;;;;3.10;99.90;;;;;;5093688;28;19908;-77
2021/03/16 02:25:16;;;;;;;;;;;3.00;99.90;;;;;;5095372;28;19963;-76
2021/03/16 02:28:10;;;;;;;;;;;3.00;99.90;;;;;;5093219;28;20307;-77
2021/03/16 02:30:38;;;;;;;;;;;3.00;99.90;;;;;;5057901;28;20368;-76
2021/03/16 02:33:05;;;;;;;;;;;3.00;99.90;;;;;;5093740;28;19947;-77
2021/03/16 02:35:32;;;;;;;;;;;3.00;99.90;;;;;;5092920;28;19916;-76
2021/03/16 02:37:57;;;;;;;;;;;3.10;99.90;;;;;;5094312;28;20285;-77
2021/03/16 02:40:25;;;;;;;;;;;3.10;99.90;;;;;;5093388;28;19908;-77
2021/03/16 02:42:50;;;;;;;;;;;3.10;99.90;;;;;;5091075;28;20319;-77
2021/03/16 02:45:16;;;;;;;;;;;3.00;99.90;;;;;;5093232;28;19915;-77
2021/03/16 02:47:44;;;;;;;;;;;3.10;99.90;;;;;;5091915;28;19909;-77
2021/03/16 02:50:10;;;;;;;;;;;3.10;99.90;;;;;;5094318;28;19908;-77
2021/03/16 02:52:36;;;;;;;;;;;3.00;99.90;;;;;;5094256;28;20357;-77
2021/03/16 02:55:03;;;;;;;;;;;3.00;99.90;;;;;;5094335;28;19927;-77
2021/03/16 02:57:29;;;;;;;;;;;3.00;99.90;;;;;;5092553;28;20423;-76
2021/03/16 02:59:55;;;;;;;;;;;3.00;99.90;;;;;;5093022;28;19912;-77
2021/03/16 03:02:21;;;;;;;;;;;3.00;99.90;;;;;;5092956;28;19909;-77
2021/03/16 03:04:47;;;;;;;;;;;3.00;99.90;;;;;;5092757;28;19912;-77
2021/03/16 03:07:14;;;;;;;;;;;3.00;99.90;;;;;;5093821;28;19954;-76
2021/03/16 03:09:39;;;;;;;;;;;3.00;99.90;;;;;;5092466;28;19961;-77
2021/03/16 03:12:06;;;;;;;;;;;3.00;99.90;;;;;;5090756;28;19908;-76
2021/03/16 03:14:32;;;;;;;;;;;3.00;99.90;;;;;;5092637;28;19915;-77
2021/03/16 03:16:58;;;;;;;;;;;3.00;99.90;;;;;;5093961;28;19915;-76
2021/03/16 03:19:23;;;;;;;;;;;3.00;99.90;;;;;;5093699;28;19915;-76
2021/03/16 03:21:52;;;;;;;;;;;2.90;99.90;;;;;;5092494;28;20281;-76
2021/03/16 03:24:23;;;;;;;;;;;2.90;99.90;;;;;;5093854;28;19996;-76
2021/03/16 03:27:03;;;;;;;;;;;2.90;99.90;;;;;;5093485;28;19915;-77
2021/03/16 03:29:30;;;;;;;;;;;2.90;99.90;;;;;;5093588;28;20166;-77
2021/03/16 03:31:56;;;;;;;;;;;2.90;99.90;;;;;;5092288;28;19912;-76
2021/03/16 03:34:22;;;;;;;;;;;2.90;99.90;;;;;;5092222;28;20280;-77
2021/03/16 03:36:57;;;;;;;;;;;2.90;99.90;;;;;;5091753;28;19912;-76
2021/03/16 03:39:24;;;;;;;;;;;2.90;99.90;;;;;;5092199;28;19908;-76
2021/03/16 03:41:50;;;;;;;;;;;2.80;99.90;;;;;;5088814;28;19909;-77
2021/03/16 03:44:17;;;;;;;;;;;2.80;99.90;;;;;;5092989;28;19908;-76
2021/03/16 03:46:43;;;;;;;;;;;2.80;99.90;;;;;;5091963;28;19915;-76
2021/03/16 03:49:10;;;;;;;;;;;2.90;99.90;;;;;;5093264;28;20426;-77
2021/03/16 03:51:37;;;;;;;;;;;2.80;99.90;;;;;;5093029;28;19908;-76
2021/03/16 03:54:04;;;;;;;;;;;2.80;99.90;;;;;;5091853;28;19908;-76
2021/03/16 03:56:31;;;;;;;;;;;2.80;99.90;;;;;;5091463;28;20399;-77
2021/03/16 03:59:02;;;;;;;;;;;2.90;99.90;;;;;;5091834;28;19916;-77
2021/03/16 04:01:29;;;;;;;;;;;2.90;99.90;;;;;;5091627;28;19961;-76
2021/03/16 04:03:55;;;;;;;;;;;2.90;99.90;;;;;;5091548;28;20395;-77
2021/03/16 04:06:24;;;;;;;;;;;2.90;99.90;;;;;;5091329;28;19908;-76
2021/03/16 04:08:53;;;;;;;;;;;2.90;99.90;;;;;;5091650;28;20000;-77
2021/03/16 04:11:19;;;;;;;;;;;2.80;99.90;;;;;;5089337;28;20362;-77
2021/03/16 04:13:45;;;;;;;;;;;2.80;99.90;;;;;;5091366;28;19908;-77
2021/03/16 04:16:11;;;;;;;;;;;2.80;99.90;;;;;;5092289;28;20249;-77
2021/03/16 04:18:37;;;;;;;;;;;2.80;99.90;;;;;;5091587;28;19919;-76
2021/03/16 04:21:03;;;;;;;;;;;2.90;99.90;;;;;;5091153;28;20417;-76
2021/03/16 04:23:29;;;;;;;;;;;2.90;99.90;;;;;;5091593;28;19994;-76
2021/03/16 04:25:54;;;;;;;;;;;2.90;99.90;;;;;;5090825;28;19909;-76
2021/03/16 04:28:19;;;;;;;;;;;2.90;99.90;;;;;;5091092;28;19908;-77
2021/03/16 04:30:45;;;;;;;;;;;2.90;99.90;;;;;;5092510;28;20284;-76
2021/03/16 04:33:10;;;;;;;;;;;2.90;99.90;;;;;;5091217;28;19908;-76
2021/03/16 04:35:36;;;;;;;;;;;2.90;99.90;;;;;;5090656;28;19916;-77
2021/03/16 04:38:01;;;;;;;;;;;2.90;99.90;;;;;;5090845;28;19908;-77
2021/03/16 04:40:27;;;;;;;;;;;2.90;99.90;;;;;;5090787;28;19966;-76
2021/03/16 04:42:52;;;;;;;;;;;2.90;99.90;;;;;;5088730;28;19912;-77
2021/03/16 04:45:18;;;;;;;;;;;2.90;99.90;;;;;;5092172;28;19908;-76
2021/03/16 04:47:43;;;;;;;;;;;2.90;99.90;;;;;;5090557;28;20357;-77
2021/03/16 04:50:09;;;;;;;;;;;2.90;99.90;;;;;;5090658;28;19915;-77
2021/03/16 04:52:34;;;;;;;;;;;2.90;99.90;;;;;;5090762;28;19931;-77
2021/03/16 04:55:00;;;;;;;;;;;2.90;99.90;;;;;;5090558;28;19966;-76
2021/03/16 04:57:25;;;;;;;;;;;2.90;99.90;;;;;;5091602;28;20277;-76
2021/03/16 04:59:51;;;;;;;;;;;2.90;99.90;;;;;;5090747;28;19914;-77
2021/03/16 05:02:16;;;;;;;;;;;2.90;99.90;;;;;;5091826;28;19977;-77
2021/03/16 05:04:42;;;;;;;;;;;2.80;99.90;;;;;;5091876;28;20404;-76
2021/03/16 05:07:08;;;;;;;;;;;2.80;99.90;;;;;;5091870;28;19916;-76
2021/03/16 05:09:33;;;;;;;;;;;2.80;99.90;;;;;;5090275;28;19914;-77
2021/03/16 05:11:59;;;;;;;;;;;2.80;99.90;;;;;;5088399;28;19916;-77
2021/03/16 05:14:24;;;;;;;;;;;2.80;99.90;;;;;;5090263;28;20042;-77
2021/03/16 05:16:50;;;;;;;;;;;2.80;99.90;;;;;;5090043;28;19919;-76
2021/03/16 05:19:15;;;;;;;;;;;2.80;99.90;;;;;;5090204;28;19958;-77
2021/03/16 05:21:41;;;;;;;;;;;2.80;99.90;;;;;;5090258;28;20258;-77
2021/03/16 05:24:07;;;;;;;;;;;2.80;99.90;;;;;;5085249;28;19962;-77
2021/03/16 05:26:33;;;;;;;;;;;2.80;99.90;;;;;;5090946;28;19938;-77
2021/03/16 05:28:58;;;;;;;;;;;2.80;99.90;;;;;;5084693;28;19912;-77
2021/03/16 05:31:23;;;;;;;;;;;2.80;99.90;;;;;;5090016;28;19908;-77
2021/03/16 05:33:49;;;;;;;;;;;2.80;99.90;;;;;;5089829;28;19910;-76
2021/03/16 05:36:14;;;;;;;;;;;2.80;99.90;;;;;;5089683;28;19916;-77
2021/03/16 05:38:40;;;;;;;;;;;2.80;99.90;;;;;;5090073;28;19908;-77
2021/03/16 05:41:07;;;;;;;;;;;2.80;99.90;;;;;;5089223;28;19908;-77
2021/03/16 05:43:33;;;;;;;;;;;2.80;99.90;;;;;;5090282;28;19908;-77
2021/03/16 05:45:58;;;;;;;;;;;2.80;99.90;;;;;;5085693;28;20365;-77
2021/03/16 05:48:24;;;;;;;;;;;2.80;99.90;;;;;;5087604;28;20159;-77
2021/03/16 05:50:53;;;;;;;;;;;2.80;99.90;;;;;;5089979;28;19908;-77
2021/03/16 05:53:19;;;;;;;;;;;2.80;99.90;;;;;;5091048;28;19908;-75
2021/03/16 05:55:44;;;;;;;;;;;2.80;99.90;;;;;;5089592;28;19923;-77
2021/03/16 05:58:10;;;;;;;;;;;2.80;99.90;;;;;;5089897;28;20006;-76
2021/03/16 06:00:36;;;;;;;;;;;2.80;99.90;;;;;;5089929;28;20284;-76
2021/03/16 06:03:01;;;;;;;;;;;2.80;99.90;;;;;;5091189;28;19961;-76
2021/03/16 06:05:27;;;;;;;;;;;2.80;99.90;;;;;;5089776;28;19966;-76
2021/03/16 06:07:52;;;;;;;;;;;2.80;99.90;;;;;;5089395;28;20281;-77
2021/03/16 06:10:19;;;;;;;;;;;2.90;99.90;;;;;;5090982;28;19915;-77
2021/03/16 06:12:45;;;;;;;;;;;2.90;99.90;;;;;;5086463;28;19935;-76
2021/03/16 06:15:18;;;;;;;;;;;2.90;99.90;;;;;;5089605;28;20416;-77
2021/03/16 06:17:48;;;;;;;;;;;2.90;99.90;;;;;;5090561;28;19934;-76
2021/03/16 06:20:30;;;;;;;;;;;2.90;99.90;;;;;;5091408;28;19916;-76
2021/03/16 06:23:01;;;;;;;;;;;3.00;99.90;;;;;;5089568;28;19995;-76
2021/03/16 06:25:31;;;;;;;;;;;3.00;99.90;;;;;;5089643;28;19931;-77
2021/03/16 06:28:01;;;;;;;;;;;3.00;99.90;;;;;;5083271;28;19909;-77
2021/03/16 06:30:26;;;;;;;;;;;3.00;99.90;;;;;;5089473;28;19943;-77
2021/03/16 06:32:52;;;;;;;;;;;3.00;99.90;;;;;;5090611;28;19943;-76
2021/03/16 06:35:17;;;;;;;;;;;3.00;99.90;;;;;;5090509;28;19985;-75
2021/03/16 06:37:58;;;;;;;;;;;3.00;99.90;;;;;;5089317;28;19962;-77
2021/03/16 06:40:27;;;;;;;;;;;3.00;99.90;;;;;;5089553;28;19909;-76
2021/03/16 06:43:06;;;;;;;;;;;3.10;99.90;;;;;;5089220;28;19908;-76
2021/03/16 06:45:32;;;;;;;;;;;3.10;99.90;;;;;;5091506;28;20393;-75
2021/03/16 06:47:59;;;;;;;;;;;3.10;99.90;;;;;;5094036;28;19914;-76
2021/03/16 06:50:28;;;;;;;;;;;3.10;99.90;;;;;;5092964;28;19948;-76
2021/03/16 06:52:53;;;;;;;;;;;3.10;99.90;;;;;;5094124;28;19915;-77
2021/03/16 06:55:19;;;;;;;;;;;3.10;99.90;;;;;;5092730;28;19912;-76
2021/03/16 06:57:45;;;;;;;;;;;3.00;99.90;;;;;;5093823;28;19916;-76
2021/03/16 07:00:11;;;;;;;;;;;3.10;99.90;;;;;;5092617;28;19908;-76
2021/03/16 07:02:37;;;;;;;;;;;3.00;99.90;;;;;;5093040;28;20376;-76
2021/03/16 07:05:02;;;;;;;;;;;3.00;99.90;;;;;;5094089;28;19908;-75
2021/03/16 07:07:28;;;;;;;;;;;3.10;99.90;;;;;;5093708;28;19915;-77
2021/03/16 07:10:00;;;;;;;;;;;3.10;99.90;;;;;;5092808;28;20273;-77
2021/03/16 07:12:32;;;;;;;;;;;3.10;99.90;;;;;;5090399;28;19917;-77
2021/03/16 07:14:59;;;;;;;;;;;3.10;99.90;;;;;;5093359;28;19908;-77
2021/03/16 07:17:25;;;;;;;;;;;3.10;99.90;;;;;;5091740;28;20309;-77
2021/03/16 07:19:52;;;;;;;;;;;3.20;99.90;;;;;;5092155;28;19988;-77
2021/03/16 07:22:20;;;;;;;;;;;3.20;99.90;;;;;;5093184;28;19916;-77
2021/03/16 07:24:46;;;;;;;;;;;3.20;99.90;;;;;;5092099;28;19916;-77
2021/03/16 07:27:12;;;;;;;;;;;3.30;99.90;;;;;;5091579;28;19915;-77
2021/03/16 07:29:38;;;;;;;;;;;3.30;99.90;;;;;;5086600;28;19928;-77
2021/03/16 07:32:04;;;;;;;;;;;3.30;99.90;;;;;;5081966;28;20311;-77
2021/03/16 07:34:29;;;;;;;;;;;3.40;99.90;;;;;;5091771;28;19916;-77
2021/03/16 07:36:56;;;;;;;;;;;3.40;99.90;;;;;;5090851;28;20564;-77
2021/03/16 07:39:23;;;;;;;;;;;3.40;99.90;;;;;;5093217;28;19958;-77
2021/03/16 07:41:49;;;;;;;;;;;3.40;99.90;;;;;;5088316;28;19908;-77
2021/03/16 07:44:16;;;;;;;;;;;3.50;99.90;;;;;;5093147;28;19912;-76
2021/03/16 07:46:41;;;;;;;;;;;3.50;99.90;;;;;;5091472;28;19962;-75
2021/03/16 07:49:07;;;;;;;;;;;3.50;99.90;;;;;;5091920;28;20323;-77
2021/03/16 07:51:33;;;;;;;;;;;3.50;99.90;;;;;;5093109;28;19908;-77
2021/03/16 07:54:06;;;;;;;;;;;3.60;99.90;;;;;;5093270;28;20162;-77
2021/03/16 07:56:34;;;;;;;;;;;3.70;99.90;;;;;;5091194;28;19938;-77
2021/03/16 07:59:00;;;;;;;;;;;3.80;99.90;;;;;;5091294;28;19908;-75
2021/03/16 08:01:26;;;;;;;;;;;3.90;99.90;;;;;;5091370;28;19908;-76
2021/03/16 08:04:02;;;;;;;;;;;3.90;99.90;;;;;;5091199;28;20462;-77
2021/03/16 08:06:29;;;;;;;;;;;3.90;99.90;;;;;;5089356;28;20019;-76
2021/03/16 08:08:55;;;;;;;;;;;4.00;99.90;;;;;;5091453;28;19915;-77
2021/03/16 08:11:20;;;;;;;;;;;4.10;99.90;;;;;;5092676;28;19908;-77
2021/03/16 08:13:56;;;;;;;;;;;4.10;99.90;;;;;;5090968;28;19955;-76
2021/03/16 08:16:32;;;;;;;;;;;4.10;99.90;;;;;;5091377;28;20066;-76
2021/03/16 08:19:06;;;;;;;;;;;4.10;99.90;;;;;;5092358;28;19915;-77
2021/03/16 08:21:34;;;;;;;;;;;4.10;99.90;;;;;;5089980;28;19918;-76
2021/03/16 08:24:04;;;;;;;;;;;4.20;99.90;;;;;;5090313;28;19908;-75
2021/03/16 08:26:29;;;;;;;;;;;4.40;99.90;;;;;;5090534;28;19958;-76
2021/03/16 08:28:55;;;;;;;;;;;4.40;99.90;;;;;;5089454;28;19947;-76
2021/03/16 08:31:20;;;;;;;;;;;4.50;99.90;;;;;;5090287;28;19908;-76
2021/03/16 08:33:46;;;;;;;;;;;4.60;99.90;;;;;;5090486;28;19916;-77
2021/03/16 08:36:11;;;;;;;;;;;4.60;99.90;;;;;;5088804;28;19916;-78
2021/03/16 08:38:37;;;;;;;;;;;4.70;99.90;;;;;;5089411;28;20005;-76
2021/03/16 08:41:06;;;;;;;;;;;4.70;99.90;;;;;;5088431;28;20048;-75
2021/03/16 08:43:32;;;;;;;;;;;4.70;99.90;;;;;;5090118;28;19953;-77
2021/03/16 08:45:58;;;;;;;;;;;4.70;99.90;;;;;;5091087;28;19912;-76
2021/03/16 08:48:27;;;;;;;;;;;4.70;99.90;;;;;;5090960;28;19915;-77
2021/03/16 08:50:53;;;;;;;;;;;4.70;99.90;;;;;;5091823;28;20027;-77
2021/03/16 08:53:18;;;;;;;;;;;4.70;99.90;;;;;;5090242;28;19966;-76
2021/03/16 08:55:48;;;;;;;;;;;4.60;99.90;;;;;;5089876;28;19935;-77
2021/03/16 08:58:13;;;;;;;;;;;4.50;99.90;;;;;;5088550;28;19915;-76
2021/03/16 09:00:39;;;;;;;;;;;4.50;99.90;;;;;;5091680;28;19908;-77
2021/03/16 09:03:04;;;;;;;;;;;4.50;99.90;;;;;;5090222;28;19909;-77
2021/03/16 09:05:30;;;;;;;;;;;4.50;99.90;;;;;;5088257;28;19908;-76
2021/03/16 09:07:59;;;;;;;;;;;4.50;99.90;;;;;;5087548;28;20455;-76
2021/03/16 09:10:25;;;;;;;;;;;4.50;99.90;;;;;;5084742;28;20276;-77
2021/03/16 09:12:51;;;;;;;;;;;4.50;99.90;;;;;;5082426;28;19931;-77
2021/03/16 09:15:17;;;;;;;;;;;4.50;99.90;;;;;;5088717;28;20396;-76
2021/03/16 09:17:43;;;;;;;;;;;4.60;99.90;;;;;;5088906;28;19987;-77
2021/03/16 09:20:29;;;;;;;;;;;4.50;99.90;;;;;;5087957;28;19916;-76
2021/03/16 09:22:59;;;;;;;;;;;4.50;99.90;;;;;;5088015;28;20332;-77
2021/03/16 09:25:34;;;;;;;;;;;4.50;99.90;;;;;;5089969;28;19908;-75
2021/03/16 09:28:01;;;;;;;;;;;4.50;99.90;;;;;;5087580;28;19938;-76
2021/03/16 09:30:34;;;;;;;;;;;4.50;99.90;;;;;;5086410;28;19912;-75
2021/03/16 09:33:00;;;;;;;;;;;4.40;99.90;;;;;;5089848;28;20349;-75
2021/03/16 09:35:26;;;;;;;;;;;4.40;99.90;;;;;;5089078;28;19933;-76
2021/03/16 09:37:52;;;;;;;;;;;4.40;99.90;;;;;;5089319;28;19912;-76
2021/03/16 09:40:27;;;;;;;;;;;4.30;99.90;;;;;;5088906;28;19926;-76
2021/03/16 09:42:52;;;;;;;;;;;4.20;99.90;;;;;;5086064;28;19915;-76
2021/03/16 09:45:18;;;;;;;;;;;4.20;99.90;;;;;;5091156;28;19908;-76
2021/03/16 09:47:43;;;;;;;;;;;4.20;99.90;;;;;;5089414;28;20207;-76
2021/03/16 09:50:13;;;;;;;;;;;4.10;99.90;;;;;;5088401;28;19908;-76
2021/03/16 09:52:40;;;;;;;;;;;4.00;99.90;;;;;;5088155;28;19915;-76
2021/03/16 09:55:06;;;;;;;;;;;3.90;99.90;;;;;;5090505;28;19923;-76
2021/03/16 09:57:33;;;;;;;;;;;3.80;99.90;;;;;;5085875;28;19998;-76
2021/03/16 09:59:59;;;;;;;;;;;3.80;99.90;;;;;;5089901;28;19908;-75
2021/03/16 10:02:31;;;;;;;;;;;3.90;99.90;;;;;;5089447;28;20379;-75
2021/03/16 10:05:01;;;;;;;;;;;4.00;99.90;;;;;;5086935;28;20369;-75
2021/03/16 10:07:28;;;;;;;;;;;4.10;99.90;;;;;;5088994;28;20013;-76
2021/03/16 10:09:54;;;;;;;;;;;4.20;99.90;;;;;;5089462;28;20220;-76
2021/03/16 10:12:21;;;;;;;;;;;4.40;99.90;;;;;;5086779;28;19908;-76
2021/03/16 10:14:50;;;;;;;;;;;4.60;99.90;;;;;;5086399;28;19943;-76
2021/03/16 10:17:25;;;;;;;;;;;4.80;99.90;;;;;;5084094;28;20404;-76
2021/03/16 10:19:51;;;;;;;;;;;5.00;99.90;;;;;;5090627;28;20129;-77
2021/03/16 10:22:17;;;;;;;;;;;5.10;99.90;;;;;;5088497;28;19908;-74
2021/03/16 10:24:42;;;;;;;;;;;5.20;99.90;;;;;;5087654;28;19913;-77
2021/03/16 10:27:08;;;;;;;;;;;5.30;99.90;;;;;;5089610;28;19908;-76
2021/03/16 10:29:36;;;;;;;;;;;5.30;99.90;;;;;;5106902;28;20505;-76
2021/03/16 10:32:02;;;;;;;;;;;5.20;99.90;;;;;;5098161;28;20281;-76
2021/03/16 10:34:27;;;;;;;;;;;5.10;99.90;;;;;;5092855;28;19942;-76
2021/03/16 10:36:53;;;;;;;;;;;4.90;99.90;;;;;;5091129;28;20014;-76
2021/03/16 10:39:18;;;;;;;;;;;4.90;99.90;;;;;;5091815;28;19954;-76
2021/03/16 10:41:44;;;;;;;;;;;5.10;99.90;;;;;;5092726;28;20417;-75
2021/03/16 10:44:09;;;;;;;;;;;5.10;99.90;;;;;;5092102;28;20004;-76
2021/03/16 10:46:35;;;;;;;;;;;5.10;99.90;;;;;;5091017;28;20219;-76
2021/03/16 10:49:00;;;;;;;;;;;5.10;99.90;;;;;;5092253;28;19940;-76
2021/03/16 10:51:26;;;;;;;;;;;5.20;99.90;;;;;;5089115;28;19998;-76
2021/03/16 10:53:51;;;;;;;;;;;5.30;99.90;;;;;;5090729;28;19959;-78
2021/03/16 10:56:17;;;;;;;;;;;5.30;99.90;;;;;;5100082;28;19922;-76
2021/03/16 10:58:42;;;;;;;;;;;5.40;99.90;;;;;;5091995;28;19908;-76
2021/03/16 11:01:08;;;;;;;;;;;5.50;99.90;;;;;;5108383;28;19908;-76
2021/03/16 11:03:34;;;;;;;;;;;5.60;99.90;;;;;;5104372;28;19947;-75
2021/03/16 11:05:59;;;;;;;;;;;5.70;99.90;;;;;;5095558;28;19999;-76
2021/03/16 11:08:25;;;;;;;;;;;5.80;99.90;;;;;;5103001;28;20422;-75
2021/03/16 11:10:50;;;;;;;;;;;5.80;99.90;;;;;;5085615;28;19921;-76
2021/03/16 11:13:16;;;;;;;;;;;5.90;99.90;;;;;;5087966;28;20339;-77
2021/03/16 11:15:41;;;;;;;;;;;6.00;99.90;;;;;;5085968;28;20377;-77
2021/03/16 11:18:07;;;;;;;;;;;6.10;99.90;;;;;;5101840;28;19962;-77
2021/03/16 11:20:32;;;;;;;;;;;6.20;99.90;;;;;;5075533;28;19912;-76
2021/03/16 11:22:58;;;;;;;;;;;6.30;99.90;;;;;;5084970;28;19923;-77
2021/03/16 11:25:23;;;;;;;;;;;6.40;99.90;;;;;;5086866;28;19998;-77
2021/03/16 11:27:49;;;;;;;;;;;6.60;99.90;;;;;;5092889;28;19919;-76
2021/03/16 11:30:15;;;;;;;;;;;6.60;99.90;;;;;;5086165;28;20297;-77
2021/03/16 11:32:40;;;;;;;;;;;6.50;99.90;;;;;;5088730;28;20274;-78
2021/03/16 11:35:06;;;;;;;;;;;6.50;99.90;;;;;;5089271;28;19997;-77
2021/03/16 11:37:31;;;;;;;;;;;6.40;99.90;;;;;;5091944;28;19908;-77
2021/03/16 11:39:57;;;;;;;;;;;6.40;99.90;;;;;;5090000;28;19919;-77
2021/03/16 11:42:22;;;;;;;;;;;6.20;99.90;;;;;;5093127;28;20250;-77
2021/03/16 11:44:48;;;;;;;;;;;6.10;99.90;;;;;;5092198;28;19998;-77
2021/03/16 11:47:16;;;;;;;;;;;5.90;99.90;;;;;;5090043;28;19909;-77
2021/03/16 11:49:42;;;;;;;;;;;5.80;99.90;;;;;;5092621;28;20357;-77
2021/03/16 11:52:07;;;;;;;;;;;5.80;99.90;;;;;;5085142;28;19916;-77
2021/03/16 11:54:33;;;;;;;;;;;5.80;99.90;;;;;;5090559;28;19923;-76
2021/03/16 11:56:58;;;;;;;;;;;5.90;99.90;;;;;;5095248;28;19912;-77
2021/03/16 11:59:24;;;;;;;;;;;5.90;99.90;;;;;;5092317;28;19958;-77
2021/03/16 12:01:50;;;;;;;;;;;5.90;99.90;;;;;;5094055;28;19970;-75
2021/03/16 12:04:16;;;;;;;;;;;6.00;99.90;;;;;;5091611;28;20285;-77
2021/03/16 12:06:41;;;;;;;;;;;6.10;99.90;;;;;;5088271;28;19922;-75
2021/03/16 12:09:07;;;;;;;;;;;6.10;99.90;;;;;;5086752;28;19944;-77
2021/03/16 12:11:33;;;;;;;;;;;6.10;99.90;;;;;;5091227;28;19908;-78
2021/03/16 12:13:59;;;;;;;;;;;6.10;99.90;;;;;;5086946;28;19914;-75
2021/03/16 12:16:24;;;;;;;;;;;6.10;99.90;;;;;;5092171;28;19911;-75
2021/03/16 12:18:50;;;;;;;;;;;6.20;99.90;;;;;;5092268;28;19931;-78
2021/03/16 12:21:15;;;;;;;;;;;6.30;99.90;;;;;;5092565;28;19978;-74
2021/03/16 12:23:41;;;;;;;;;;;6.40;99.90;;;;;;5095984;28;19912;-75
2021/03/16 12:26:06;;;;;;;;;;;6.40;99.90;;;;;;5090848;28;20252;-75
2021/03/16 12:28:31;;;;;;;;;;;6.40;99.90;;;;;;5089748;28;20369;-74
2021/03/16 12:30:58;;;;;;;;;;;6.30;99.90;;;;;;5092007;28;19908;-75
2021/03/16 12:33:23;;;;;;;;;;;6.30;99.90;;;;;;5091402;28;20523;-75
2021/03/16 12:35:51;;;;;;;;;;;6.30;99.90;;;;;;5088745;28;19916;-75
2021/03/16 12:38:17;;;;;;;;;;;6.20;99.90;;;;;;5091102;28;19908;-75
2021/03/16 12:40:42;;;;;;;;;;;6.20;99.90;;;;;;5092111;28;20049;-75
2021/03/16 12:43:08;;;;;;;;;;;6.20;99.90;;;;;;5088164;28;20258;-74
2021/03/16 12:45:33;;;;;;;;;;;6.30;99.90;;;;;;5093078;28;20057;-75
2021/03/16 12:47:59;;;;;;;;;;;6.30;99.90;;;;;;5087481;28;19928;-75
2021/03/16 12:50:24;;;;;;;;;;;6.30;99.90;;;;;;5097149;28;20000;-79
2021/03/16 12:52:50;;;;;;;;;;;6.20;99.90;;;;;;5087531;28;19923;-75
2021/03/16 12:55:16;;;;;;;;;;;6.30;99.90;;;;;;5088788;28;20372;-75
2021/03/16 12:57:41;;;;;;;;;;;6.30;99.90;;;;;;5088255;28;19919;-75
2021/03/16 13:00:07;;;;;;;;;;;6.40;99.90;;;;;;5090914;28;19920;-76
2021/03/16 13:02:33;;;;;;;;;;;6.60;99.90;;;;;;5083653;28;20395;-74
2021/03/16 13:04:59;;;;;;;;;;;6.70;99.90;;;;;;5090649;28;19908;-77
2021/03/16 13:07:24;;;;;;;;;;;6.80;99.90;;;;;;5089708;28;19931;-74
2021/03/16 13:09:50;;;;;;;;;;;7.00;99.90;;;;;;5089561;28;20323;-75
2021/03/16 13:12:17;;;;;;;;;;;7.20;99.90;;;;;;5088538;28;19908;-80
2021/03/16 13:14:43;;;;;;;;;;;7.30;99.90;;;;;;5088017;28;20367;-74
2021/03/16 13:17:08;;;;;;;;;;;7.40;99.90;;;;;;5090636;28;20007;-74
2021/03/16 13:19:34;;;;;;;;;;;7.40;99.90;;;;;;5088222;28;19916;-75
2021/03/16 13:21:59;;;;;;;;;;;7.40;99.90;;;;;;5087728;28;20010;-77
2021/03/16 13:24:25;;;;;;;;;;;7.40;99.90;;;;;;5089273;28;19912;-74
2021/03/16 13:26:50;;;;;;;;;;;7.20;99.90;;;;;;5088150;28;19908;-75
2021/03/16 13:29:16;;;;;;;;;;;7.10;99.90;;;;;;5087681;28;19980;-75
2021/03/16 13:31:41;;;;;;;;;;;6.80;99.90;;;;;;5090482;28;19908;-80
2021/03/16 13:34:07;;;;;;;;;;;6.60;99.90;;;;;;5088590;28;20003;-75
2021/03/16 13:36:32;;;;;;;;;;;6.50;99.90;;;;;;5088190;28;20030;-75
2021/03/16 13:38:58;;;;;;;;;;;6.40;99.90;;;;;;5091254;28;19915;-75
2021/03/16 13:41:23;;;;;;;;;;;6.30;99.90;;;;;;5091754;28;19908;-74
2021/03/16 13:43:49;;;;;;;;;;;6.30;99.90;;;;;;5087736;28;19912;-75
2021/03/16 13:46:14;;;;;;;;;;;6.30;99.90;;;;;;5089678;28;19915;-77
2021/03/16 13:48:40;;;;;;;;;;;6.30;99.90;;;;;;5089945;28;19916;-78
2021/03/16 13:51:05;;;;;;;;;;;6.40;99.90;;;;;;5089789;28;19996;-74
2021/03/16 13:53:31;;;;;;;;;;;6.40;99.90;;;;;;5085260;28;20007;-74
2021/03/16 13:55:56;;;;;;;;;;;6.30;99.90;;;;;;5087448;28;19923;-75
2021/03/16 13:58:22;;;;;;;;;;;6.30;99.90;;;;;;5092379;28;19915;-77
2021/03/16 14:00:48;;;;;;;;;;;6.40;99.90;;;;;;5095470;28;19912;-75
2021/03/16 14:03:13;;;;;;;;;;;6.50;99.90;;;;;;5091508;28;19996;-74
2021/03/16 14:05:38;;;;;;;;;;;6.60;99.90;;;;;;5093340;28;19914;-76
2021/03/16 14:08:04;;;;;;;;;;;6.80;99.90;;;;;;5093749;28;19908;-78
2021/03/16 14:10:30;;;;;;;;;;;6.80;99.90;;;;;;5094767;28;19908;-74
2021/03/16 14:12:55;;;;;;;;;;;6.90;99.90;;;;;;5091176;28;20049;-75
2021/03/16 14:15:21;;;;;;;;;;;7.00;99.90;;;;;;5093120;28;19999;-75
2021/03/16 14:17:46;;;;;;;;;;;7.20;99.90;;;;;;5094183;28;20381;-78
2021/03/16 14:20:13;;;;;;;;;;;7.30;99.90;;;;;;5094768;28;20369;-74
2021/03/16 14:22:39;;;;;;;;;;;7.50;99.90;;;;;;5088717;28;19909;-78
2021/03/16 14:25:05;;;;;;;;;;;7.40;99.10;;;;;;5109883;28;19907;-75
2021/03/16 14:27:31;;;;;;;;;;;7.30;99.40;;;;;;5098922;28;19914;-78